• Join FlightAware (Why Join?)
  • Login
  • US Flag 
10:34PM EDT


 

Airport Tracker/Info


-or-


 

Live Flight TrackerFlight Track Log ✈ N419B ✈ 19-Apr-2013 ✈ KHWO - KHXD

Flight Track Log - Related Links

Times and Time Zones

All times are in EDT time to prevent confusion due to time zone crossing. See the N419B flight status page for this flight to view local times or setup timezone preferences in your user account.

Time Position Orientation Groundspeed Altitude Reporting Facility
EDT Latitude Longitude Course Direction KTS MPH feet Rate Location/Type
09:03AM 26.0017 -80.2342 294° West 88 101 400  Level Miami Center
09:04AM 26.0136 -80.2644 294° West 144 166 1,100 420 Climbing Miami Center
09:06AM 26.0208 -80.3131 279° West 154 177 1,400 360 Climbing Miami Center
09:07AM 26.0175 -80.3594 265° West 150 173 1,900 360 Climbing Miami Center
09:08AM 26.0122 -80.4122 264° West 145 167 2,200 540 Climbing Miami Center
09:09AM 26.0069 -80.4492 261° West 135 155 3,000 300 Climbing Miami Center
09:10AM 26.0058 -80.5000 269° West 153 176 2,900 -60 Descending Miami Center
09:11AM 26.0300 -80.5308 311° West 182 209 2,900  Level Miami Center
09:12AM 26.0758 -80.5344 356° North 177 204 2,900  Level Miami Center
09:13AM 26.1344 -80.5294 North 186 214 2,900 120 Level Miami Center
09:15AM 26.2195 -80.5317 359° North  Level Estimated
09:22AM 26.5598 -80.5406 359° North  Level Estimated
09:23AM 26.6084 -80.5418 359° North  Level Estimated
09:24AM 26.6570 -80.5431 359° North  Level Estimated
09:25AM 26.7056 -80.5444 359° North  Level Estimated
09:26AM 26.7542 -80.5457 359° North  Level Estimated
09:27AM 26.8028 -80.5470 359° North  Level Estimated
09:28AM 26.8514 -80.5482 359° North  Level Estimated
09:29AM 26.9000 -80.5495 359° North  Level Estimated
09:30AM 26.9486 -80.5508 359° North  Level Estimated
09:30AM 26.9092 -80.3650 359° North 183 211 5,700  Level Miami Center
09:31AM 26.9972 -80.5521 359° North  Level Estimated
09:31AM 26.9639 -80.3550 North 197 227 5,300  Level Miami Center
09:32AM 27.0459 -80.5534 359° North  Level Estimated
09:32AM 27.0144 -80.3331 21° North 191 220 5,000  Level Miami Center
09:33AM 27.0945 -80.5547 359° North  Level Estimated
09:33AM 27.0589 -80.3111 24° Northeast 178 205 4,900  Level Miami Center
09:34AM 27.1431 -80.5559 359° North  Level Estimated
09:34AM 27.0989 -80.2983 16° North 167 192 5,000  Level Miami Center
09:35AM 27.1917 -80.5572 359° North  Level Estimated
09:35AM 27.1533 -80.2883 North 167 192 5,000  Level Miami Center
09:36AM 27.1992 -80.2919 356° North 162 186 4,900  Descending Miami Center
09:37AM 27.2425 -80.3094 340° North 162 186 5,000  Climbing Miami Center
09:38AM 27.2839 -80.3247 342° North 167 192 4,900 -60 Descending Miami Center
09:39AM 27.3317 -80.3425 342° North 167 192 4,900  Level Miami Center
09:40AM 27.3811 -80.3606 342° North 167 192 4,900  Level Miami Center
09:41AM 27.4267 -80.3806 339° North 167 192 4,900  Level Miami Center
09:42AM 27.4722 -80.3961 343° North 167 192 4,900  Level Miami Center
09:43AM 27.5136 -80.4136 339° North 167 192 5,000  Climbing Miami Center
09:44AM 27.5592 -80.4292 343° North 167 192 4,900 -60 Descending Miami Center
09:45AM 27.6108 -80.4494 341° North 167 192 4,900  Level Miami Center
09:46AM 27.6583 -80.4675 341° North 167 192 4,900  Level Miami Center
09:47AM 27.6997 -80.4828 342° North 167 192 4,900  Level Miami Center
09:49AM 27.8000 -80.5167 343° North 175 201 5,000  Climbing Orlando TRACON
09:50AM 27.8500 -80.5333 344° North 174 200 5,000  Level Orlando TRACON
09:52AM 27.9000 -80.5500 344° North 175 201 5,000  Level Orlando TRACON
09:53AM 27.9500 -80.5667 344° North 177 204 5,000  Level Orlando TRACON
09:54AM 28.0000 -80.6000 330° Northwest 177 204 5,000 -120 Level Orlando TRACON
09:55AM 28.0333 -80.6000 360° North 173 199 4,800  Descending Orlando TRACON
09:56AM 28.0833 -80.6333 330° Northwest 169 194 5,000  Climbing Orlando TRACON
09:57AM 28.1333 -80.6500 344° North 175 201 4,900 -60 Descending Orlando TRACON
09:58AM 28.1833 -80.6667 344° North 182 209 4,900 120 Level Orlando TRACON
09:59AM 28.2333 -80.6833 344° North 173 199 5,200 480 Climbing Orlando TRACON
10:00AM 28.2667 -80.7000 336° Northwest 152 175 5,900 600 Climbing Orlando TRACON
10:01AM 28.3167 -80.7167 344° North 158 182 6,500 420 Climbing Orlando TRACON
10:02AM 28.3500 -80.7333 336° Northwest 164 189 6,800 180 Climbing Orlando TRACON
10:03AM 28.4000 -80.7500 344° North 171 197 6,900  Climbing Orlando TRACON
10:04AM 28.4333 -80.7667 336° Northwest 179 206 6,900  Level Orlando TRACON
10:05AM 28.4833 -80.7833 344° North 180 207 7,000  Climbing Orlando TRACON
10:06AM 28.5333 -80.8000 344° North 177 204 7,000  Level Orlando TRACON
10:07AM 28.5833 -80.8167 344° North 179 206 7,000 -60 Level Orlando TRACON
10:08AM 28.6333 -80.8333 344° North 182 209 6,900  Descending Orlando TRACON
10:09AM 28.6833 -80.8667 330° Northwest 178 205 7,000  Climbing Orlando TRACON
10:10AM 28.7167 -80.8833 336° Northwest 181 208 6,900 -60 Descending Orlando TRACON
10:11AM 28.7667 -80.9000 344° North 181 208 6,900  Level Orlando TRACON
10:13AM 28.8592 -80.9344 342° North 178 205 7,000  Climbing Jacksonville Center
10:13AM 28.9011 -80.9525 339° North 179 206 6,900  Descending Jacksonville Center
10:14AM 28.9514 -80.9681 345° North 185 213 7,000  Climbing Jacksonville Center
10:15AM 28.9956 -80.9839 343° North 179 206 6,900  Descending Jacksonville Center
10:16AM 29.0439 -81.0044 340° North 179 206 7,000  Climbing Jacksonville Center
10:17AM 29.0903 -81.0297 335° Northwest 182 209 6,900  Descending Jacksonville Center
10:19AM 29.1425 -81.0478 343° North 178 205 7,000  Climbing Jacksonville Center
10:20AM 29.1889 -81.0683 339° North 178 205 6,900 -60 Descending Jacksonville Center
10:20AM 29.2328 -81.0842 343° North 182 209 6,900  Level Jacksonville Center
10:21AM 29.2792 -81.1069 337° Northwest 183 211 6,900  Level Jacksonville Center
10:22AM 29.3317 -81.1250 343° North 182 209 7,000  Climbing Jacksonville Center
10:24AM 29.3819 -81.1433 342° North 181 208 7,000  Level Jacksonville Center
10:25AM 29.4322 -81.1592 345° North 179 206 7,000 -60 Level Jacksonville Center
10:26AM 29.4806 -81.1844 336° Northwest 178 205 6,900 -60 Descending Jacksonville Center
10:27AM 29.5289 -81.1981 346° North 180 207 6,900  Level Jacksonville Center
10:28AM 29.5728 -81.2186 338° Northwest 178 205 6,900 60 Level Jacksonville Center
10:28AM 29.5939 -81.2256 344° North 178 205 7,000  Climbing Jacksonville Center
10:29AM 29.6400 -81.2414 343° North 181 208 6,900 -60 Descending Jacksonville Center
10:30AM 29.6861 -81.2572 343° North 180 207 6,900  Level Jacksonville Center
10:31AM 29.7406 -81.2781 342° North 183 211 7,000  Climbing Jacksonville Center
10:32AM 29.7889 -81.2964 342° North 182 209 7,000  Level Jacksonville Center
10:33AM 29.8350 -81.3172 339° North 181 208 7,000 -60 Level Jacksonville Center
10:34AM 29.8875 -81.3356 343° North 185 213 6,900  Descending Jacksonville Center
10:35AM 29.9378 -81.3561 340° North 190 219 7,000  Climbing Jacksonville Center
10:36AM 29.9861 -81.3697 346° North 183 211 7,000  Level Jacksonville Center
10:37AM 30.0364 -81.3931 338° Northwest 185 213 7,000 -60 Level Jacksonville Center
10:38AM 30.0867 -81.4089 345° North 185 213 6,900  Descending Jacksonville Center
10:39AM 30.1350 -81.4275 342° North 181 208 7,100  Climbing Jacksonville Center
10:40AM 30.1853 -81.4436 345° North 185 213 7,000 -60 Descending Jacksonville Center
10:41AM 30.2333 -81.4622 341° North 184 212 7,000  Level Jacksonville Center
10:42AM 30.2817 -81.4831 340° North 180 207 7,000  Level Jacksonville Center
10:43AM 30.3278 -81.5039 339° North 179 206 7,000  Level Jacksonville Center
10:44AM 30.3842 -81.4886 13° North 193 222 7,000  Level Jacksonville Center
10:45AM 30.4319 -81.4689 20° North 190 219 7,000 -60 Level Jacksonville Center
10:46AM 30.4900 -81.4439 20° North 194 223 6,900 -60 Descending Jacksonville Center
10:47AM 30.5192 -81.4336 17° North 193 222 6,900  Level Jacksonville Center
10:47AM 30.5400 -81.4236 22° Northeast 193 222 6,900  Level Jacksonville Center
10:48AM 30.5692 -81.4136 16° North 188 216 6,900 60 Level Jacksonville Center
10:48AM 30.5919 -81.4061 16° North 192 221 7,000 60 Climbing Jacksonville Center
10:49AM 30.6189 -81.3911 26° Northeast 189 217 7,000  Level Jacksonville Center
10:50AM 30.6439 -81.3811 19° North 192 221 7,000  Level Jacksonville Center
10:50AM 30.6731 -81.3758 North 193 222 7,000  Level Jacksonville Center
10:51AM 30.6958 -81.3658 21° North 196 226 7,000  Level Jacksonville Center
10:51AM 30.7250 -81.3531 21° North 202 232 7,000  Level Jacksonville Center
10:52AM 30.7725 -81.3283 24° Northeast 207 238 7,000 -60 Level Jacksonville Center
10:53AM 30.8267 -81.3056 20° North 202 232 6,900 -60 Descending Jacksonville Center
10:54AM 30.8764 -81.2853 19° North 196 226 6,900  Level Jacksonville Center
10:55AM 30.9283 -81.2650 19° North 196 226 7,000  Climbing Jacksonville Center
10:56AM 30.9803 -81.2447 19° North 191 220 7,000  Level Jacksonville Center
10:57AM 31.0281 -81.2197 24° Northeast 191 220 7,000 -60 Level Jacksonville Center
10:58AM 31.0800 -81.1994 18° North 191 220 6,900  Descending Jacksonville Center
10:59AM 31.1319 -81.1719 24° Northeast 191 220 7,000  Climbing Jacksonville Center
11:00AM 31.1839 -81.1539 17° North 185 213 6,900  Descending Jacksonville Center
11:01AM 31.2378 -81.1333 18° North 191 220 7,000 60 Climbing Jacksonville Center
11:02AM 31.2792 -81.1133 22° Northeast 191 220 7,100  Climbing Jacksonville Center
11:03AM 31.3311 -81.0878 23° Northeast 191 220 7,000 -120 Descending Jacksonville Center
11:04AM 31.3872 -81.0625 21° North 191 220 6,900  Descending Jacksonville Center
11:05AM 31.4369 -81.0419 19° North 191 220 7,100  Climbing Jacksonville Center
11:06AM 31.4889 -81.0192 21° North 192 221 7,000 -60 Descending Jacksonville Center
11:07AM 31.5344 -80.9986 21° North 187 215 7,000 -180 Level Jacksonville Center
11:08AM 31.5925 -80.9731 21° North 200 230 6,700 -660 Descending Jacksonville Center
11:09AM 31.6506 -80.9547 15° North 207 238 5,700 -900 Descending Jacksonville Center
11:10AM 31.7067 -80.9292 21° North 212 244 4,900 -420 Descending Jacksonville Center
11:11AM 31.7522 -80.9086 21° North 202 232 4,900  Level Jacksonville Center
11:13AM 31.8153 -80.8760 24° Northeast  Level FlightAware Approximate
11:20AM 32.1161 -80.7335 16° North  Level FlightAware Approximate
11:21AM 32.1568 -80.7108 12° North  Level FlightAware Approximate
11:22AM 32.2018 -80.6982 40° Northeast  Level FlightAware Approximate
11:23AM 32.2167 -80.6833 40° Northeast  Level FlightAware Approximate
11:24AM 32.2244 -80.6975 40° Northeast  Level Estimated
11:25AM 32.2244 -80.6975 40° Northeast  Level Estimated
11:26AM 32.2244 -80.6975 40° Northeast  Level Estimated
11:27AM 32.2244 -80.6975 40° Northeast  Level Estimated
11:28AM 32.2244 -80.6975 40° Northeast  Level Estimated
11:29AM 32.2244 -80.6975 40° Northeast  Level Estimated